Time;durP1;ratioP1;P1;durP2;ratioP2;P2;SDS_P1;SDS_P2;PMS_P1;PMS_P2;Temp;Humidity;BMP_temperature;BMP_pressure;BME280_temperature;BME280_humidity;BME280_pressure;Samples;Min_cycle;Max_cycle;Signal;HPM_P1;HPM_P2
2022/07/30 00:01:39;;;;;;;11.43;10.23;;;24.80;99.90;;;;;;5097490;28;20032;-53
2022/07/30 00:04:05;;;;;;;15.27;10.90;;;25.00;99.90;;;;;;5099685;28;20394;-52
2022/07/30 00:06:31;;;;;;;14.45;11.32;;;25.10;99.90;;;;;;5104448;28;20027;-52
2022/07/30 00:08:57;;;;;;;14.15;11.07;;;25.20;99.90;;;;;;5094603;28;20027;-52
2022/07/30 00:11:23;;;;;;;16.38;11.00;;;25.20;99.90;;;;;;5099240;28;20471;-52
2022/07/30 00:13:49;;;;;;;12.75;11.10;;;25.20;99.90;;;;;;5095056;28;20039;-54
2022/07/30 00:16:15;;;;;;;12.40;10.15;;;25.20;99.90;;;;;;5104637;28;20047;-54
2022/07/30 00:18:41;;;;;;;17.20;11.80;;;25.20;99.90;;;;;;5096784;28;20031;-52
2022/07/30 00:21:07;;;;;;;14.38;11.48;;;25.30;99.90;;;;;;5087675;28;20047;-54
2022/07/30 00:23:32;;;;;;;11.18;10.05;;;25.20;99.90;;;;;;5103220;28;20028;-53
2022/07/30 00:25:58;;;;;;;12.18;10.65;;;24.90;99.90;;;;;;5088770;27;20200;-54
2022/07/30 00:28:24;;;;;;;14.00;10.70;;;24.70;99.90;;;;;;5057709;27;20038;-54
2022/07/30 00:30:50;;;;;;;13.23;10.60;;;24.70;99.90;;;;;;5108008;27;20075;-51
2022/07/30 00:33:15;;;;;;;15.30;10.25;;;24.80;99.90;;;;;;5136161;27;20037;-52
2022/07/30 00:35:41;;;;;;;14.45;11.57;;;24.90;99.90;;;;;;5099719;27;20054;-51
2022/07/30 00:38:07;;;;;;;12.45;10.88;;;25.00;99.90;;;;;;5085626;27;20088;-53
2022/07/30 00:40:33;;;;;;;13.13;10.27;;;25.00;99.90;;;;;;5141505;27;20385;-51
2022/07/30 00:42:58;;;;;;;13.02;10.55;;;25.00;99.90;;;;;;5121852;27;20034;-53
2022/07/30 00:45:35;;;;;;;15.90;10.65;;;25.10;99.90;;;;;;5141078;27;20645;-52
2022/07/30 00:48:01;;;;;;;11.57;10.38;;;25.20;99.90;;;;;;5140126;27;20061;-52
2022/07/30 00:50:26;;;;;;;12.90;10.63;;;25.20;99.90;;;;;;5138923;27;20062;-54
2022/07/30 00:52:52;;;;;;;11.95;10.63;;;25.30;99.90;;;;;;5141067;27;20026;-53
2022/07/30 00:55:18;;;;;;;13.55;10.20;;;25.20;99.90;;;;;;5113539;27;20042;-52
2022/07/30 00:57:44;;;;;;;12.60;10.80;;;25.30;99.90;;;;;;5135235;27;20106;-54
2022/07/30 01:00:12;;;;;;;27.40;11.65;;;25.40;99.90;;;;;;5075266;28;20091;-53
2022/07/30 01:02:39;;;;;;;24.67;11.65;;;25.40;99.90;;;;;;5143788;27;20382;-51
2022/07/30 01:05:06;;;;;;;15.57;10.95;;;25.50;99.90;;;;;;5111724;27;20035;-52
2022/07/30 01:07:32;;;;;;;14.07;11.10;;;25.50;99.90;;;;;;5139515;27;20533;-51
2022/07/30 01:09:57;;;;;;;11.88;10.27;;;25.50;99.90;;;;;;5094197;27;20060;-54
2022/07/30 01:12:25;;;;;;;12.20;10.68;;;25.50;99.90;;;;;;5138503;27;20057;-53
2022/07/30 01:14:52;;;;;;;12.88;10.25;;;25.50;99.90;;;;;;5104823;27;20043;-54
2022/07/30 01:17:19;;;;;;;11.02;9.80;;;25.40;99.90;;;;;;5141298;27;20076;-54
2022/07/30 01:19:47;;;;;;;11.32;10.13;;;25.30;99.90;;;;;;5139793;27;20478;-54
2022/07/30 01:22:29;;;;;;;11.27;10.07;;;25.20;99.90;;;;;;5141234;27;20038;-52
2022/07/30 01:25:21;;;;;;;10.80;9.45;;;25.20;99.90;;;;;;5135909;27;20037;-52
2022/07/30 01:27:53;;;;;;;11.57;10.07;;;25.20;99.90;;;;;;5139937;27;20062;-52
2022/07/30 01:30:24;;;;;;;16.25;11.13;;;25.20;99.90;;;;;;5139277;27;20080;-51
2022/07/30 01:32:52;;;;;;;11.95;10.60;;;25.20;99.90;;;;;;5113065;27;20481;-51
2022/07/30 01:35:20;;;;;;;12.45;10.35;;;25.10;99.90;;;;;;5144636;27;20060;-52
2022/07/30 01:37:48;;;;;;;14.75;10.32;;;25.20;99.90;;;;;;5134915;27;20027;-51
2022/07/30 01:40:14;;;;;;;11.70;10.57;;;25.20;99.90;;;;;;5147555;27;20037;-52
2022/07/30 01:42:42;;;;;;;13.98;11.77;;;25.20;99.90;;;;;;5114077;27;20490;-52
2022/07/30 01:45:09;;;;;;;17.13;13.27;;;25.10;99.90;;;;;;5143658;27;20107;-53
2022/07/30 01:47:37;;;;;;;18.98;14.20;;;25.00;99.90;;;;;;5138626;27;20023;-52
2022/07/30 01:50:06;;;;;;;14.18;12.00;;;25.00;99.90;;;;;;5145727;27;20087;-52
2022/07/30 01:52:34;;;;;;;17.52;13.05;;;25.00;99.90;;;;;;5097116;27;20034;-52
2022/07/30 01:55:01;;;;;;;17.83;13.00;;;25.00;99.90;;;;;;5143448;27;20092;-53
2022/07/30 01:57:27;;;;;;;17.17;13.55;;;25.00;99.90;;;;;;5147577;27;20019;-54
2022/07/30 02:00:02;;;;;;;25.67;14.80;;;25.00;99.90;;;;;;5112099;27;20038;-55
2022/07/30 02:02:28;;;;;;;19.10;14.15;;;25.00;99.90;;;;;;5138188;27;20031;-50
2022/07/30 02:04:54;;;;;;;21.65;14.75;;;25.00;99.90;;;;;;5110054;27;20019;-53
2022/07/30 02:07:31;;;;;;;23.83;16.08;;;25.00;99.90;;;;;;5064931;27;20057;-53
2022/07/30 02:10:18;;;;;;;25.90;16.23;;;25.00;99.90;;;;;;5145396;27;20489;-51
2022/07/30 02:12:54;;;;;;;19.50;15.07;;;25.10;99.90;;;;;;5141634;27;20542;-54
2022/07/30 02:15:33;;;;;;;20.50;15.02;;;25.10;99.90;;;;;;5140759;27;20039;-51
2022/07/30 02:18:26;;;;;;;23.05;14.43;;;25.10;99.90;;;;;;5145794;27;20037;-53
2022/07/30 02:21:01;;;;;;;19.83;14.20;;;25.10;99.90;;;;;;5125654;27;20043;-53
2022/07/30 02:23:28;;;;;;;20.42;15.75;;;25.20;99.90;;;;;;5145564;27;20034;-52
2022/07/30 02:25:59;;;;;;;20.52;15.02;;;25.30;99.90;;;;;;5141732;27;20088;-53
2022/07/30 02:28:38;;;;;;;17.73;13.90;;;25.30;99.90;;;;;;5092195;28;20035;-53
2022/07/30 02:31:06;;;;;;;25.27;18.23;;;25.40;99.90;;;;;;5075127;28;20135;-52
2022/07/30 02:33:39;;;;;;;23.38;17.15;;;25.20;99.90;;;;;;5109237;28;20043;-52
2022/07/30 02:36:06;;;;;;;21.75;15.50;;;25.20;99.90;;;;;;5110428;28;20052;-51
2022/07/30 02:38:34;;;;;;;19.05;14.20;;;25.10;99.90;;;;;;5107795;28;20421;-53
2022/07/30 02:41:01;;;;;;;18.05;13.35;;;25.10;99.90;;;;;;5108089;28;20039;-54
2022/07/30 02:43:29;;;;;;;19.58;13.10;;;25.20;99.90;;;;;;5075691;28;20153;-51
2022/07/30 02:45:56;;;;;;;15.95;12.85;;;25.20;99.90;;;;;;5107673;28;20035;-51
2022/07/30 02:48:26;;;;;;;17.45;13.88;;;25.10;99.90;;;;;;5107694;28;20075;-52
2022/07/30 02:50:53;;;;;;;15.65;12.02;;;24.90;99.90;;;;;;5107537;28;20031;-54
2022/07/30 02:53:21;;;;;;;12.30;10.85;;;24.60;99.90;;;;;;5075309;28;20044;-54
2022/07/30 02:55:48;;;;;;;12.63;11.30;;;24.30;99.90;;;;;;5088928;28;20059;-53
2022/07/30 02:58:20;;;;;;;12.63;11.52;;;24.40;99.90;;;;;;5109948;28;20521;-55
2022/07/30 03:00:49;;;;;;;14.38;11.05;;;24.40;99.90;;;;;;5109987;28;20534;-53
2022/07/30 03:03:16;;;;;;;12.90;11.60;;;24.60;99.90;;;;;;5107470;28;20065;-54
2022/07/30 03:05:46;;;;;;;12.73;11.20;;;24.70;99.90;;;;;;5105119;27;20039;-53
2022/07/30 03:08:15;;;;;;;14.32;12.32;;;24.70;99.90;;;;;;5138778;27;20056;-55
2022/07/30 03:10:43;;;;;;;19.63;13.90;;;24.70;99.90;;;;;;5142110;27;20035;-52
2022/07/30 03:13:11;;;;;;;16.60;12.32;;;24.70;99.90;;;;;;5141418;27;20402;-54
2022/07/30 03:15:48;;;;;;;15.18;12.50;;;24.80;99.90;;;;;;5108599;28;20536;-50
2022/07/30 03:18:17;;;;;;;18.23;13.02;;;24.80;99.90;;;;;;5101966;28;20087;-50
2022/07/30 03:20:46;;;;;;;17.92;12.93;;;24.90;99.90;;;;;;5108647;28;20587;-52
2022/07/30 03:23:18;;;;;;;13.85;12.38;;;24.90;99.90;;;;;;5107772;28;20073;-52
2022/07/30 03:25:56;;;;;;;25.00;14.02;;;24.80;99.90;;;;;;5051762;28;20130;-51
2022/07/30 03:28:23;;;;;;;18.73;13.75;;;24.70;99.90;;;;;;5106878;28;20062;-52
2022/07/30 03:30:52;;;;;;;16.83;13.85;;;24.80;99.90;;;;;;5108680;28;20054;-54
2022/07/30 03:33:19;;;;;;;17.33;13.68;;;24.90;99.90;;;;;;5091816;28;20031;-53
2022/07/30 03:35:47;;;;;;;15.23;13.20;;;24.90;99.90;;;;;;5107015;28;20428;-51
2022/07/30 03:38:14;;;;;;;14.75;12.10;;;25.00;99.90;;;;;;5107238;28;20063;-52
2022/07/30 03:40:41;;;;;;;17.70;13.77;;;25.00;99.90;;;;;;5103715;28;20046;-51
2022/07/30 03:43:11;;;;;;;18.33;14.02;;;25.10;99.90;;;;;;5108199;28;20043;-51
2022/07/30 03:45:40;;;;;;;20.92;14.65;;;25.10;99.90;;;;;;5112081;27;20032;-52
2022/07/30 03:48:08;;;;;;;20.83;16.05;;;25.10;99.90;;;;;;5142410;27;20035;-52
2022/07/30 03:50:39;;;;;;;24.05;17.50;;;24.90;99.90;;;;;;5094906;27;20053;-52
2022/07/30 03:53:08;;;;;;;20.95;16.08;;;24.80;99.90;;;;;;5136843;27;20031;-51
2022/07/30 03:55:34;;;;;;;19.25;15.40;;;24.50;99.90;;;;;;5138188;27;20062;-50
2022/07/30 03:58:00;;;;;;;37.35;25.35;;;24.20;99.90;;;;;;5139992;27;20018;-52
2022/07/30 04:00:27;;;;;;;15.73;13.27;;;24.20;99.90;;;;;;5094136;27;20035;-51
2022/07/30 04:02:57;;;;;;;18.17;12.30;;;24.20;99.90;;;;;;5133802;27;20023;-52
2022/07/30 04:05:23;;;;;;;16.25;13.00;;;24.30;99.90;;;;;;5135209;27;20049;-52
2022/07/30 04:07:49;;;;;;;20.52;18.42;;;24.40;99.90;;;;;;5085165;27;20035;-50
2022/07/30 04:10:15;;;;;;;19.60;14.82;;;24.50;99.90;;;;;;5085836;27;20034;-51
2022/07/30 04:12:41;;;;;;;16.45;13.77;;;24.60;99.90;;;;;;5146051;27;20015;-53
2022/07/30 04:15:08;;;;;;;13.20;11.70;;;24.70;99.90;;;;;;5141697;27;20048;-52
2022/07/30 04:35:03;;;;;;;13.50;12.20;;;24.50;99.90;;;;;;5082740;27;20403;-52
2022/07/30 04:37:28;;;;;;;16.23;12.65;;;24.20;99.90;;;;;;5071274;28;20043;-52
2022/07/30 04:39:56;;;;;;;15.43;12.25;;;24.10;99.90;;;;;;5074776;28;20032;-50
2022/07/30 04:42:26;;;;;;;15.40;12.55;;;24.20;99.90;;;;;;5067158;28;20025;-52
2022/07/30 04:44:53;;;;;;;13.68;11.93;;;24.40;99.90;;;;;;5064068;28;20041;-53
2022/07/30 04:47:19;;;;;;;16.08;12.60;;;24.30;99.90;;;;;;5069672;28;20048;-50
2022/07/30 04:49:47;;;;;;;18.92;13.50;;;24.40;99.90;;;;;;5071757;28;20078;-50
2022/07/30 04:52:14;;;;;;;14.00;12.55;;;24.40;99.90;;;;;;5079111;28;20032;-51
2022/07/30 04:54:45;;;;;;;14.68;12.40;;;24.40;99.90;;;;;;5070490;28;20021;-50
2022/07/30 04:57:14;;;;;;;16.33;12.27;;;24.60;99.90;;;;;;5067328;28;20106;-52
2022/07/30 04:59:40;;;;;;;16.45;12.50;;;25.00;99.90;;;;;;5070614;28;20277;-53
2022/07/30 05:02:07;;;;;;;18.88;13.63;;;25.30;99.90;;;;;;5066637;28;20124;-51
2022/07/30 05:04:34;;;;;;;16.70;13.98;;;25.60;99.90;;;;;;5067655;28;20041;-52
2022/07/30 05:07:01;;;;;;;15.82;13.32;;;25.80;99.90;;;;;;5068159;28;20040;-53
2022/07/30 05:09:28;;;;;;;18.80;12.68;;;25.90;99.90;;;;;;5068132;28;20110;-52
2022/07/30 05:11:55;;;;;;;16.50;12.57;;;26.10;99.90;;;;;;5067193;28;20405;-50
2022/07/30 05:14:22;;;;;;;18.63;12.77;;;26.10;99.90;;;;;;5066981;28;20039;-50
2022/07/30 05:16:49;;;;;;;15.38;12.82;;;26.10;99.90;;;;;;5064913;28;20527;-51
2022/07/30 05:19:15;;;;;;;13.10;11.80;;;26.10;99.90;;;;;;5068403;28;20033;-53
2022/07/30 05:21:41;;;;;;;24.08;13.13;;;26.20;99.90;;;;;;5067542;28;20060;-51
2022/07/30 05:24:07;;;;;;;20.08;12.38;;;26.30;99.90;;;;;;5071175;28;20068;-51
2022/07/30 05:26:33;;;;;;;15.90;12.35;;;26.40;99.90;;;;;;5058754;28;20130;-51
2022/07/30 05:28:59;;;;;;;20.88;13.18;;;26.50;99.90;;;;;;5067281;28;20035;-52
2022/07/30 05:31:25;;;;;;;17.05;14.30;;;26.60;99.90;;;;;;5083313;28;20127;-53
2022/07/30 05:33:51;;;;;;;16.00;13.02;;;26.60;99.90;;;;;;5083293;28;20071;-51
2022/07/30 05:36:18;;;;;;;15.85;12.65;;;26.70;99.90;;;;;;5072827;28;20064;-53
2022/07/30 05:38:44;;;;;;;17.17;12.85;;;26.80;99.90;;;;;;5054508;28;20044;-51
2022/07/30 05:41:10;;;;;;;26.15;13.40;;;26.90;99.90;;;;;;5073230;28;20532;-52
2022/07/30 05:43:36;;;;;;;23.13;14.38;;;26.90;99.90;;;;;;5073718;28;20040;-49
2022/07/30 05:46:01;;;;;;;16.60;13.63;;;27.00;99.90;;;;;;5036159;28;20075;-51
2022/07/30 05:48:27;;;;;;;18.70;13.10;;;26.80;99.90;;;;;;5049622;28;20044;-53
2022/07/30 05:50:53;;;;;;;17.80;12.43;;;26.80;99.90;;;;;;5071197;28;20576;-49
2022/07/30 05:53:19;;;;;;;18.30;13.07;;;;;;;;;;5046252;28;20056;-52
2022/07/30 05:55:45;;;;;;;13.80;12.43;;;;;;;;;;5000197;28;20091;-51
2022/07/30 05:58:11;;;;;;;16.50;12.77;;;;;;;;;;5014113;28;20040;-51
2022/07/30 06:00:38;;;;;;;18.35;13.13;;;27.90;99.90;;;;;;4995747;28;20033;-52
2022/07/30 06:03:03;;;;;;;18.67;13.38;;;28.10;99.90;;;;;;5019593;28;20044;-53
2022/07/30 06:05:31;;;;;;;18.35;13.50;;;27.90;99.90;;;;;;5050556;28;20044;-50
2022/07/30 06:07:57;;;;;;;37.35;17.40;;;;;;;;;;5051148;28;20040;-50
2022/07/30 06:10:23;;;;;;;17.48;13.35;;;28.40;99.90;;;;;;5052893;28;20036;-51
2022/07/30 06:12:49;;;;;;;14.82;12.63;;;28.40;99.90;;;;;;5022429;28;20045;-51
2022/07/30 06:15:15;;;;;;;19.45;12.73;;;;;;;;;;5027481;28;20040;-51
2022/07/30 06:17:44;;;;;;;15.75;12.70;;;28.80;99.90;;;;;;5022090;28;20041;-51
2022/07/30 06:20:11;;;;;;;14.90;12.55;;;;;;;;;;5024781;28;20076;-53
2022/07/30 06:22:37;;;;;;;18.45;12.38;;;29.10;99.90;;;;;;5023444;28;20269;-53
2022/07/30 06:25:04;;;;;;;16.48;12.95;;;;;;;;;;5023152;28;20128;-55
2022/07/30 06:27:32;;;;;;;19.48;13.70;;;29.30;99.90;;;;;;5021397;28;20525;-51
2022/07/30 06:30:03;;;;;;;16.80;12.55;;;29.60;99.90;;;;;;4996924;28;20555;-51
2022/07/30 06:32:29;;;;;;;21.23;13.57;;;29.60;99.90;;;;;;5037063;28;20041;-50
2022/07/30 06:34:54;;;;;;;15.18;12.50;;;29.60;99.90;;;;;;5042821;28;20297;-53
2022/07/30 06:37:20;;;;;;;15.80;12.00;;;;;;;;;;5009186;28;20040;-52
2022/07/30 06:39:47;;;;;;;12.98;10.77;;;;;;;;;;5009956;28;20050;-53
2022/07/30 06:42:13;;;;;;;13.38;11.80;;;;;;;;;;5009607;28;20041;-53
2022/07/30 06:44:39;;;;;;;12.30;10.98;;;;;;;;;;5010571;28;20124;-51
2022/07/30 06:47:06;;;;;;;15.18;12.07;;;;;;;;;;5011817;28;20436;-50
2022/07/30 06:49:32;;;;;;;12.55;11.27;;;;;;;;;;5012762;28;20049;-54
2022/07/30 06:51:58;;;;;;;14.07;12.13;;;;;;;;;;5013002;28;20706;-55
2022/07/30 06:54:24;;;;;;;16.88;11.25;;;;;;;;;;5009602;28;20025;-52
2022/07/30 06:56:51;;;;;;;13.20;11.82;;;;;;;;;;5012302;28;20496;-52
2022/07/30 06:59:17;;;;;;;17.55;11.98;;;;;;;;;;5024462;28;20488;-55
2022/07/30 07:01:43;;;;;;;14.32;11.48;;;30.70;99.90;;;;;;5006746;28;20073;-52
2022/07/30 07:04:09;;;;;;;13.57;12.18;;;30.70;99.90;;;;;;5009429;28;20382;-52
2022/07/30 07:06:35;;;;;;;12.80;11.40;;;;;;;;;;5010751;28;20080;-54
2022/07/30 07:09:01;;;;;;;16.95;12.15;;;;;;;;;;5007839;28;21351;-52
2022/07/30 07:11:27;;;;;;;13.07;11.77;;;;;;;;;;5012801;28;20125;-50
2022/07/30 07:13:53;;;;;;;13.10;11.48;;;;;;;;;;5016650;28;20038;-53
2022/07/30 07:16:24;;;;;;;13.20;11.13;;;31.20;99.90;;;;;;5050642;28;20029;-51
2022/07/30 07:18:51;;;;;;;16.85;11.63;;;31.20;99.90;;;;;;5051187;28;20069;-50
2022/07/30 07:21:17;;;;;;;13.88;12.43;;;31.10;99.90;;;;;;5052211;28;20489;-55
2022/07/30 07:23:43;;;;;;;16.80;11.93;;;31.00;99.90;;;;;;5063608;28;20411;-54
2022/07/30 07:26:10;;;;;;;17.70;13.60;;;30.70;99.90;;;;;;5051190;28;20036;-53
2022/07/30 07:28:36;;;;;;;16.48;11.75;;;30.40;99.90;;;;;;5054937;28;20136;-50
2022/07/30 07:31:02;;;;;;;15.60;12.90;;;30.40;99.90;;;;;;5055122;28;20029;-50
2022/07/30 07:33:28;;;;;;;13.75;12.38;;;30.30;99.90;;;;;;5056805;28;20049;-48
2022/07/30 07:35:54;;;;;;;13.95;12.48;;;;;;;;;;5065388;28;20441;-53
2022/07/30 07:38:21;;;;;;;14.75;12.40;;;;;;;;;;5055611;28;20037;-49
2022/07/30 07:40:47;;;;;;;15.73;12.60;;;;;;;;;;5052927;28;20388;-50
2022/07/30 07:43:13;;;;;;;15.65;12.35;;;;;;;;;;5051833;28;20479;-50
2022/07/30 07:45:40;;;;;;;13.52;12.20;;;;;;;;;;5051456;28;20033;-54
2022/07/30 07:48:06;;;;;;;14.68;11.88;;;;;;;;;;5051603;28;20111;-50
2022/07/30 07:50:32;;;;;;;12.50;11.18;;;;;;;;;;5052702;28;20155;-48
2022/07/30 07:52:59;;;;;;;13.88;12.48;;;;;;;;;;5064194;28;20039;-50
2022/07/30 07:55:25;;;;;;;16.75;12.38;;;;;;;;;;5069943;28;20119;-51
2022/07/30 07:57:52;;;;;;;16.02;12.98;;;;;;;;;;5052229;28;20021;-51
2022/07/30 08:00:18;;;;;;;14.95;12.25;;;;;;;;;;5055366;28;20056;-48
2022/07/30 08:02:44;;;;;;;14.18;12.68;;;;;;;;;;5054173;28;20041;-49
2022/07/30 08:05:11;;;;;;;16.80;12.52;;;;;;;;;;5055379;28;20104;-49
2022/07/30 08:07:39;;;;;;;14.70;12.77;;;;;;;;;;5052794;28;20032;-49
2022/07/30 08:10:06;;;;;;;13.32;11.60;;;;;;;;;;5050750;28;20121;-49
2022/07/30 08:12:32;;;;;;;19.75;12.13;;;;;;;;;;5058945;28;20044;-50
2022/07/30 08:14:58;;;;;;;20.30;11.18;;;31.80;99.90;;;;;;5052495;28;20380;-50
2022/07/30 08:17:24;;;;;;;14.48;10.90;;;32.00;99.90;;;;;;5051962;28;20025;-50
2022/07/30 08:19:50;;;;;;;17.48;11.93;;;31.80;99.90;;;;;;5059493;28;20032;-50
2022/07/30 08:22:16;;;;;;;14.43;10.73;;;31.80;99.90;;;;;;5015933;28;20128;-53
2022/07/30 08:24:42;;;;;;;12.27;10.13;;;31.90;99.90;;;;;;5013531;28;20140;-49
2022/07/30 08:27:08;;;;;;;13.07;9.68;;;31.90;99.90;;;;;;5050486;28;20025;-47
2022/07/30 08:29:34;;;;;;;13.85;11.50;;;32.00;99.90;;;;;;5050383;28;20392;-50
2022/07/30 08:32:00;;;;;;;16.38;9.57;;;31.80;99.90;;;;;;5050865;28;20060;-49
2022/07/30 08:34:28;;;;;;;13.00;10.95;;;31.70;99.90;;;;;;5050445;28;20388;-54
2022/07/30 08:36:54;;;;;;;12.88;10.13;;;31.70;99.90;;;;;;5067145;28;20044;-51
2022/07/30 08:39:20;;;;;;;12.02;9.82;;;31.60;99.90;;;;;;5050013;28;20036;-55
2022/07/30 08:41:48;;;;;;;10.82;9.73;;;31.60;99.90;;;;;;5055357;28;20041;-51
2022/07/30 08:44:17;;;;;;;12.65;10.13;;;;;;;;;;5052481;28;20040;-52
2022/07/30 08:46:45;;;;;;;12.57;9.95;;;;;;;;;;5051240;28;20033;-54
2022/07/30 08:49:11;;;;;;;11.45;9.70;;;;;;;;;;5050514;28;20032;-60
2022/07/30 08:51:38;;;;;;;10.25;9.25;;;31.80;99.90;;;;;;5050215;28;20117;-53
2022/07/30 08:54:05;;;;;;;14.90;9.90;;;32.10;99.90;;;;;;5045660;28;20074;-55
2022/07/30 08:56:32;;;;;;;12.52;10.77;;;32.10;99.90;;;;;;5047856;28;20384;-54
2022/07/30 08:59:01;;;;;;;10.45;9.23;;;32.20;99.90;;;;;;5260363;23;20784;-50
2022/07/30 09:01:27;;;;;;;11.20;8.98;;;;;;;;;;5019424;28;20045;-55
2022/07/30 09:03:53;;;;;;;19.60;9.70;;;32.20;99.90;;;;;;5022580;28;20033;-50
2022/07/30 09:06:19;;;;;;;12.88;9.23;;;32.10;99.90;;;;;;5045709;28;20044;-52
2022/07/30 09:08:45;;;;;;;12.43;9.90;;;32.20;99.90;;;;;;5028225;28;20038;-53
2022/07/30 09:11:11;;;;;;;12.23;9.88;;;32.10;99.90;;;;;;4999843;28;20049;-50
2022/07/30 09:13:43;;;;;;;16.95;10.18;;;32.10;99.90;;;;;;5032463;28;20408;-52
2022/07/30 09:16:23;;;;;;;15.88;10.35;;;31.90;98.90;;;;;;5032359;28;20088;-54
2022/07/30 09:18:51;;;;;;;13.65;10.90;;;32.00;99.00;;;;;;5038092;28;20025;-56
2022/07/30 09:21:23;;;;;;;13.65;9.98;;;32.30;99.30;;;;;;5051613;28;20116;-51
2022/07/30 09:24:01;;;;;;;15.40;10.90;;;;;;;;;;5050058;28;20041;-49
2022/07/30 09:26:28;;;;;;;13.90;10.38;;;;;;;;;;5050240;28;20045;-48
2022/07/30 09:28:54;;;;;;;13.00;10.55;;;;;;;;;;5051220;28;20103;-53
2022/07/30 09:31:21;;;;;;;12.73;10.85;;;32.70;99.90;;;;;;5055645;28;21230;-54
2022/07/30 09:33:47;;;;;;;12.70;11.13;;;32.80;99.90;;;;;;5052579;28;20037;-51
2022/07/30 09:36:17;;;;;;;12.48;10.85;;;32.90;99.90;;;;;;5050977;28;20454;-51
2022/07/30 09:38:50;;;;;;;14.32;10.52;;;32.60;95.90;;;;;;5050780;28;20063;-50
2022/07/30 09:41:19;;;;;;;13.38;11.25;;;32.80;96.20;;;;;;5044756;28;20037;-53
2022/07/30 09:43:46;;;;;;;13.07;11.23;;;;;;;;;;5046902;28;20064;-48
2022/07/30 09:46:12;;;;;;;13.63;10.73;;;;;;;;;;5049109;28;20427;-52
2022/07/30 09:48:39;;;;;;;12.18;10.90;;;;;;;;;;5050288;28;20029;-51
2022/07/30 09:51:05;;;;;;;13.85;11.52;;;33.00;98.20;;;;;;5037983;28;20044;-52
2022/07/30 09:53:31;;;;;;;14.55;10.88;;;32.90;99.60;;;;;;5049421;28;20063;-56
2022/07/30 09:55:58;;;;;;;11.40;10.20;;;;;;;;;;5053824;28;20794;-55
2022/07/30 09:58:36;;;;;;;12.30;10.38;;;;;;;;;;5044612;28;20041;-58
2022/07/30 10:01:02;;;;;;;22.92;11.93;;;;;;;;;;5033712;28;20041;-56
2022/07/30 10:03:29;;;;;;;12.50;10.57;;;;;;;;;;5034877;28;20037;-51
2022/07/30 10:05:59;;;;;;;15.68;11.10;;;;;;;;;;5050298;28;20049;-51
2022/07/30 10:08:38;;;;;;;16.42;10.13;;;;;;;;;;5052455;28;20102;-52
2022/07/30 10:11:04;;;;;;;11.63;9.95;;;;;;;;;;5050405;28;20047;-53
2022/07/30 10:13:31;;;;;;;12.38;11.05;;;;;;;;;;5052434;28;20071;-54
2022/07/30 10:15:58;;;;;;;14.05;10.57;;;;;;;;;;4985906;28;20053;-56
2022/07/30 10:18:24;;;;;;;12.90;11.55;;;;;;;;;;5048785;28;20400;-58
2022/07/30 10:20:50;;;;;;;12.55;10.45;;;;;;;;;;5055230;28;20036;-60
2022/07/30 10:23:17;;;;;;;10.98;9.88;;;;;;;;;;5051916;28;20049;-58
2022/07/30 10:25:43;;;;;;;23.00;18.80;;;;;;;;;;5050464;28;20035;-57
2022/07/30 10:28:09;;;;;;;20.65;13.82;;;;;;;;;;5052916;28;20056;-57
2022/07/30 10:30:36;;;;;;;12.05;8.75;;;;;;;;;;5050051;28;20068;-54
2022/07/30 10:33:02;;;;;;;12.70;9.15;;;;;;;;;;5045191;28;20032;-54
2022/07/30 10:35:28;;;;;;;13.40;8.93;;;;;;;;;;5049232;28;20084;-61
2022/07/30 10:37:55;;;;;;;10.38;7.32;;;;;;;;;;5040912;28;20024;-54
2022/07/30 10:40:30;;;;;;;9.88;7.90;;;;;;;;;;5035723;28;20042;-57
2022/07/30 10:42:59;;;;;;;9.73;7.40;;;;;;;;;;5033881;28;20056;-55
2022/07/30 10:45:25;;;;;;;8.18;7.38;;;;;;;;;;5039902;28;20048;-53
2022/07/30 10:47:53;;;;;;;7.80;6.82;;;;;;;;;;5042266;28;20096;-55
2022/07/30 10:50:21;;;;;;;9.60;7.20;;;;;;;;;;5033420;28;20430;-57
2022/07/30 10:52:57;;;;;;;7.75;6.13;;;;;;;;;;5034455;28;20060;-53
2022/07/30 10:55:28;;;;;;;9.27;7.32;;;;;;;;;;5032331;28;20365;-54
2022/07/30 10:57:57;;;;;;;10.50;6.07;;;;;;;;;;5031450;28;20066;-63
2022/07/30 11:00:24;;;;;;;11.40;7.00;;;;;;;;;;5031978;28;20049;-62
2022/07/30 11:03:12;;;;;;;10.00;6.50;;;;;;;;;;5031214;28;20060;-51
2022/07/30 11:05:39;;;;;;;12.18;5.90;;;;;;;;;;5029678;28;20449;-56
2022/07/30 11:08:24;;;;;;;7.20;6.50;;;;;;;;;;5031678;28;20033;-53
2022/07/30 11:10:50;;;;;;;7.32;6.55;;;;;;;;;;5030069;28;20037;-50
2022/07/30 11:13:16;;;;;;;7.70;6.57;;;;;;;;;;5033776;28;20018;-50
2022/07/30 11:16:00;;;;;;;6.88;6.28;;;;;;;;;;5031031;28;20128;-51
2022/07/30 11:18:27;;;;;;;6.50;4.57;;;;;;;;;;5027951;28;20429;-54
2022/07/30 11:21:12;;;;;;;6.60;5.60;;;;;;;;;;5030930;28;20068;-55
2022/07/30 11:23:39;;;;;;;7.63;6.20;;;;;;;;;;5047152;28;20045;-53
2022/07/30 11:26:05;;;;;;;7.13;4.85;;;;;;;;;;5033078;28;20069;-52
2022/07/30 11:28:35;;;;;;;5.75;5.18;;;;;;;;;;5053826;28;20511;-55
2022/07/30 11:31:02;;;;;;;8.15;5.45;;;;;;;;;;5031144;28;20030;-53
2022/07/30 11:33:28;;;;;;;8.20;5.70;;;;;;;;;;5034652;28;20039;-53
2022/07/30 11:36:14;;;;;;;9.48;5.82;;;;;;;;;;5028198;28;20037;-51
2022/07/30 11:38:53;;;;;;;10.20;5.65;;;;;;;;;;5030920;28;20103;-50
2022/07/30 11:41:20;;;;;;;6.32;5.72;;;;;;;;;;5027098;28;20091;-52
2022/07/30 11:43:46;;;;;;;7.07;5.88;;;;;;;;;;5031806;28;20056;-53
2022/07/30 11:46:30;;;;;;;6.88;5.22;;;;;;;;;;5030685;28;20067;-50
2022/07/30 11:48:57;;;;;;;7.28;6.50;;;;;;;;;;5033018;28;20032;-52
2022/07/30 11:51:23;;;;;;;9.93;5.78;;;;;;;;;;5030981;28;20060;-52
2022/07/30 11:54:06;;;;;;;8.93;4.63;;;;;;;;;;5045057;28;20061;-52
2022/07/30 11:56:32;;;;;;;7.18;5.00;;;;;;;;;;5033186;28;20041;-54
2022/07/30 11:59:05;;;;;;;9.05;5.15;;;;;;;;;;5033877;28;20029;-53
2022/07/30 12:01:32;;;;;;;10.68;5.30;;;;;;;;;;5048404;28;20481;-51
2022/07/30 12:04:01;;;;;;;11.30;5.80;;;;;;;;;;5029487;28;20082;-53
2022/07/30 12:06:30;;;;;;;9.73;5.68;;;;;;;;;;5031982;28;20119;-55
2022/07/30 12:08:57;;;;;;;8.95;5.05;;;;;;;;;;5034658;28;20026;-51
2022/07/30 12:11:24;;;;;;;7.72;4.60;;;;;;;;;;5046619;28;20038;-48
2022/07/30 12:13:58;;;;;;;6.03;3.80;;;;;;;;;;5031351;28;20487;-51
2022/07/30 12:16:25;;;;;;;5.22;3.97;;;;;;;;;;5041867;28;20033;-53
2022/07/30 12:18:51;;;;;;;6.65;4.72;;;;;;;;;;5026790;28;20034;-54
2022/07/30 12:21:17;;;;;;;5.13;4.05;;;;;;;;;;5031499;28;20544;-52
2022/07/30 12:24:06;;;;;;;7.82;4.68;;;;;;;;;;5035109;28;20041;-51
2022/07/30 12:26:33;;;;;;;4.70;4.30;;;;;;;;;;5031190;28;20390;-53
2022/07/30 12:29:08;;;;;;;6.93;4.05;;;;;;;;;;5030269;28;20036;-52
2022/07/30 12:31:35;;;;;;;8.68;4.88;;;;;;;;;;5034230;28;20439;-51
2022/07/30 12:34:01;;;;;;;5.28;4.13;;;;;;;;;;5030936;28;20120;-53
2022/07/30 12:36:31;;;;;;;4.63;3.70;;;;;;;;;;5034208;28;20500;-51
2022/07/30 12:38:58;;;;;;;4.60;4.18;;;;;;;;;;5034784;28;20033;-51
2022/07/30 12:41:47;;;;;;;4.93;4.45;;;33.50;99.90;;;;;;5031904;28;20515;-51
2022/07/30 12:44:31;;;;;;;7.85;4.35;;;;;;;;;;5032419;28;20086;-50
2022/07/30 12:46:58;;;;;;;6.80;4.45;;;;;;;;;;5040595;28;20035;-51
2022/07/30 12:49:28;;;;;;;8.20;4.20;;;;;;;;;;5035314;28;20129;-51
2022/07/30 12:51:54;;;;;;;6.47;4.13;;;;;;;;;;5036312;28;20029;-51
2022/07/30 12:54:21;;;;;;;6.63;4.60;;;32.30;98.80;;;;;;5035793;28;20274;-51
2022/07/30 12:57:01;;;;;;;7.40;4.60;;;;;;;;;;5035384;28;20524;-52
2022/07/30 12:59:28;;;;;;;7.72;4.63;;;32.10;98.10;;;;;;5035402;28;20061;-52
2022/07/30 13:01:56;;;;;;;7.00;4.85;;;32.00;91.80;;;;;;5028591;28;20613;-50
2022/07/30 13:04:22;;;;;;;6.38;4.93;;;32.10;91.50;;;;;;5036202;28;20076;-52
2022/07/30 13:07:07;;;;;;;5.40;4.75;;;32.10;91.60;;;;;;5036135;28;20025;-51
2022/07/30 13:09:34;;;;;;;11.18;4.93;;;;;;;;;;5032259;28;20496;-56
2022/07/30 13:12:00;;;;;;;6.10;5.05;;;;;;;;;;5037050;28;20079;-48
2022/07/30 13:14:26;;;;;;;6.40;5.00;;;31.90;95.20;;;;;;5037157;28;20440;-47
2022/07/30 13:16:57;;;;;;;8.85;4.72;;;32.00;96.30;;;;;;5036182;28;20045;-50
2022/07/30 13:19:23;;;;;;;5.47;4.97;;;;;;;;;;5035887;28;20066;-55
2022/07/30 13:21:49;;;;;;;9.02;6.45;;;31.90;99.90;;;;;;5034956;28;20033;-49
2022/07/30 13:24:15;;;;;;;6.82;5.03;;;31.90;99.90;;;;;;5038447;28;20044;-50
2022/07/30 13:26:41;;;;;;;6.88;5.22;;;32.00;99.90;;;;;;5036173;28;20029;-52
2022/07/30 13:29:07;;;;;;;6.32;5.72;;;32.10;99.90;;;;;;5035849;28;20070;-49
2022/07/30 13:31:33;;;;;;;14.05;6.78;;;32.20;99.90;;;;;;5049320;28;20401;-49
2022/07/30 13:33:58;;;;;;;10.82;6.30;;;32.20;99.90;;;;;;5035996;28;20203;-49